Time;durP1;ratioP1;P1;durP2;ratioP2;P2;SDS_P1;SDS_P2;PMS_P1;PMS_P2;Temp;Humidity;BMP_temperature;BMP_pressure;BME280_temperature;BME280_humidity;BME280_pressure;Samples;Min_cycle;Max_cycle;Signal;HPM_P1;HPM_P2
2023/07/31 00:00:01;;;;;;;2.63;1.15;;;22.80;51.60;;;;;;5127080;27;45318;-70
2023/07/31 00:02:29;;;;;;;2.75;1.15;;;22.80;51.60;;;;;;5126817;27;45293;-69
2023/07/31 00:04:56;;;;;;;2.15;1.20;;;22.70;51.70;;;;;;5127383;27;45258;-69
2023/07/31 00:07:23;;;;;;;1.00;1.00;;;22.70;51.80;;;;;;5127351;27;45620;-69
2023/07/31 00:09:50;;;;;;;1.63;1.02;;;22.70;51.80;;;;;;5126904;27;45299;-69
2023/07/31 00:12:17;;;;;;;1.67;1.15;;;22.70;51.90;;;;;;5127176;27;45357;-69
2023/07/31 00:14:45;;;;;;;2.05;1.38;;;22.70;51.70;;;;;;5127187;27;45403;-70
2023/07/31 00:17:12;;;;;;;1.52;1.00;;;22.70;51.70;;;;;;5126966;27;45238;-69
2023/07/31 00:19:39;;;;;;;1.05;1.00;;;22.70;51.60;;;;;;5126695;27;45274;-69
2023/07/31 00:22:06;;;;;;;1.85;1.20;;;22.70;51.60;;;;;;5126139;27;45408;-70
2023/07/31 00:24:33;;;;;;;1.80;1.58;;;22.70;51.60;;;;;;5127367;27;45384;-69
2023/07/31 00:27:00;;;;;;;2.63;1.10;;;22.70;51.50;;;;;;5126493;27;45481;-69
2023/07/31 00:29:27;;;;;;;1.65;1.27;;;22.70;51.70;;;;;;5126712;27;45440;-70
2023/07/31 00:31:55;;;;;;;1.85;1.17;;;22.60;51.60;;;;;;5126885;27;45145;-69
2023/07/31 00:34:22;;;;;;;2.05;1.25;;;22.60;51.70;;;;;;5126789;27;45308;-69
2023/07/31 00:36:49;;;;;;;1.95;0.90;;;22.60;51.70;;;;;;5126468;27;45531;-69
2023/07/31 00:39:16;;;;;;;3.90;1.17;;;22.60;51.60;;;;;;5127959;27;45346;-69
2023/07/31 00:41:43;;;;;;;1.35;1.20;;;22.60;51.50;;;;;;5130185;27;45367;-69
2023/07/31 00:44:09;;;;;;;2.05;1.20;;;22.60;51.50;;;;;;5130239;27;45350;-69
2023/07/31 00:46:36;;;;;;;1.90;1.38;;;22.60;51.70;;;;;;5130101;27;45659;-69
2023/07/31 00:49:04;;;;;;;1.00;0.90;;;22.50;51.80;;;;;;5129964;27;45407;-70
2023/07/31 00:51:31;;;;;;;2.40;0.98;;;22.50;51.90;;;;;;5129780;27;45272;-69
2023/07/31 00:53:58;;;;;;;2.75;1.30;;;22.50;51.80;;;;;;5129664;27;45454;-69
2023/07/31 00:56:25;;;;;;;1.65;1.10;;;22.50;52.00;;;;;;5129480;27;45785;-70
2023/07/31 00:58:52;;;;;;;3.35;1.10;;;22.50;51.90;;;;;;5129573;27;45397;-69
2023/07/31 01:01:19;;;;;;;3.17;1.10;;;22.50;52.10;;;;;;5129812;27;45369;-69
2023/07/31 01:03:46;;;;;;;1.90;0.98;;;22.50;52.00;;;;;;5130189;27;45378;-70
2023/07/31 01:06:18;;;;;;;2.60;1.15;;;22.50;52.10;;;;;;5129266;27;47395;-69
2023/07/31 01:08:49;;;;;;;1.75;1.15;;;22.50;51.90;;;;;;5128982;27;45362;-69
2023/07/31 01:11:18;;;;;;;1.23;1.20;;;22.40;52.00;;;;;;5129095;27;45590;-69
2023/07/31 01:13:45;;;;;;;2.90;1.23;;;22.40;52.00;;;;;;5129423;27;45338;-69
2023/07/31 01:16:12;;;;;;;1.73;1.02;;;22.40;52.10;;;;;;5129482;27;46614;-69
2023/07/31 01:18:39;;;;;;;4.60;1.30;;;22.40;52.00;;;;;;5129331;27;45255;-69
2023/07/31 01:21:13;;;;;;;0.90;0.90;;;22.40;51.90;;;;;;5129588;27;45271;-69
2023/07/31 01:24:13;;;;;;;1.23;0.98;;;22.40;52.40;;;;;;5129820;27;45343;-69
2023/07/31 01:26:41;;;;;;;1.10;1.00;;;22.40;51.80;;;;;;5094742;27;46517;-69
2023/07/31 01:29:11;;;;;;;1.73;1.25;;;22.40;52.00;;;;;;5129124;27;45292;-69
2023/07/31 01:31:38;;;;;;;2.72;1.33;;;22.40;52.20;;;;;;5129184;27;45379;-69
2023/07/31 01:34:10;;;;;;;1.38;1.17;;;22.40;52.60;;;;;;5129411;27;45377;-69
2023/07/31 01:36:37;;;;;;;1.30;1.20;;;22.30;52.60;;;;;;5129064;27;45479;-69
2023/07/31 01:39:04;;;;;;;2.85;1.27;;;22.30;52.70;;;;;;5128854;27;45513;-70
2023/07/31 01:41:30;;;;;;;2.15;1.10;;;22.20;52.90;;;;;;5126302;27;45361;-69
2023/07/31 01:43:59;;;;;;;2.88;1.30;;;22.20;52.90;;;;;;5129335;27;45252;-69
2023/07/31 01:46:25;;;;;;;1.38;0.95;;;22.10;53.60;;;;;;5128997;27;47442;-69
2023/07/31 01:48:52;;;;;;;1.90;1.33;;;22.10;53.00;;;;;;5129014;27;45365;-69
2023/07/31 01:51:19;;;;;;;5.25;1.30;;;22.10;53.60;;;;;;5127847;27;45391;-69
2023/07/31 01:53:46;;;;;;;2.90;1.27;;;22.10;53.20;;;;;;5128647;27;45369;-69
2023/07/31 01:56:13;;;;;;;1.67;1.10;;;22.00;53.50;;;;;;5128793;27;45309;-69
2023/07/31 01:58:40;;;;;;;2.25;1.25;;;22.00;53.40;;;;;;5128571;27;45320;-69
2023/07/31 02:01:08;;;;;;;2.03;1.10;;;22.00;53.40;;;;;;5126269;27;45314;-69
2023/07/31 02:03:35;;;;;;;1.55;1.10;;;22.00;53.20;;;;;;5128828;27;45482;-69
2023/07/31 02:06:02;;;;;;;1.13;1.00;;;22.10;53.20;;;;;;5128369;27;45429;-69
2023/07/31 02:08:29;;;;;;;1.52;1.00;;;22.10;53.20;;;;;;5127955;27;45414;-68
2023/07/31 02:10:55;;;;;;;2.33;1.25;;;22.00;53.30;;;;;;5128505;27;45287;-69
2023/07/31 02:13:22;;;;;;;1.75;1.15;;;22.00;54.10;;;;;;5128537;27;45414;-69
2023/07/31 02:15:50;;;;;;;1.15;1.05;;;21.90;53.40;;;;;;5128691;27;45309;-69
2023/07/31 02:18:18;;;;;;;1.00;1.00;;;21.90;53.40;;;;;;5128412;27;45358;-69
2023/07/31 02:20:49;;;;;;;1.85;1.20;;;21.90;53.40;;;;;;5128671;27;45282;-69
2023/07/31 02:23:16;;;;;;;2.10;1.35;;;21.80;53.40;;;;;;5128437;27;45360;-69
2023/07/31 02:25:43;;;;;;;1.15;0.80;;;21.80;53.30;;;;;;5128035;27;45310;-69
2023/07/31 02:28:10;;;;;;;3.13;0.90;;;21.80;53.20;;;;;;5128398;27;45302;-69
2023/07/31 02:30:37;;;;;;;1.85;1.10;;;21.80;53.20;;;;;;5128278;27;45322;-69
2023/07/31 02:33:04;;;;;;;2.35;1.10;;;21.80;53.20;;;;;;5128209;27;45398;-69
2023/07/31 02:35:32;;;;;;;1.83;1.05;;;21.70;53.30;;;;;;5127825;27;45359;-69
2023/07/31 02:37:59;;;;;;;3.47;1.10;;;21.60;53.30;;;;;;5127991;27;45276;-69
2023/07/31 02:40:26;;;;;;;1.77;0.98;;;21.60;53.30;;;;;;5125716;27;45356;-69
2023/07/31 02:42:52;;;;;;;3.65;1.55;;;21.60;53.10;;;;;;5128168;27;45366;-69
2023/07/31 02:45:19;;;;;;;5.95;1.10;;;21.60;53.00;;;;;;5127780;27;46987;-69
2023/07/31 02:47:46;;;;;;;3.38;1.10;;;21.50;53.00;;;;;;5128036;27;45495;-69
2023/07/31 02:50:13;;;;;;;2.47;0.90;;;21.50;53.00;;;;;;5127865;27;45310;-69
2023/07/31 02:52:41;;;;;;;2.95;1.10;;;21.50;52.80;;;;;;5127609;27;45470;-69
2023/07/31 02:55:08;;;;;;;1.20;0.85;;;21.40;53.00;;;;;;5126995;27;46337;-70
2023/07/31 02:57:35;;;;;;;2.47;1.10;;;21.40;53.00;;;;;;5127982;27;45308;-69
2023/07/31 03:00:05;;;;;;;3.13;1.13;;;21.40;53.20;;;;;;5127924;27;45284;-69
2023/07/31 03:02:32;;;;;;;1.10;0.80;;;21.40;53.20;;;;;;5127648;27;45502;-69
2023/07/31 03:04:59;;;;;;;1.40;1.10;;;21.40;53.20;;;;;;5127655;27;45783;-69
2023/07/31 03:07:26;;;;;;;2.25;1.05;;;21.30;53.70;;;;;;5127685;27;45373;-69
2023/07/31 03:09:54;;;;;;;1.10;1.00;;;21.40;52.70;;;;;;5127893;27;45304;-69
2023/07/31 03:12:21;;;;;;;0.85;0.85;;;21.30;52.80;;;;;;5128026;27;45384;-69
2023/07/31 03:14:48;;;;;;;1.00;0.90;;;21.40;52.90;;;;;;5127581;27;46619;-69
2023/07/31 03:17:15;;;;;;;1.38;1.10;;;21.30;52.90;;;;;;5127650;27;45394;-69
2023/07/31 03:19:41;;;;;;;2.53;1.30;;;21.30;53.70;;;;;;5127789;27;45380;-69
2023/07/31 03:22:08;;;;;;;2.63;0.95;;;21.30;53.10;;;;;;5127829;27;45321;-69
2023/07/31 03:24:35;;;;;;;0.98;0.90;;;21.20;53.00;;;;;;5127392;27;46144;-69
2023/07/31 03:27:04;;;;;;;1.23;1.10;;;21.20;53.00;;;;;;5127301;27;45278;-69
2023/07/31 03:29:31;;;;;;;2.60;1.10;;;21.30;52.80;;;;;;5127544;27;45369;-68
2023/07/31 03:31:59;;;;;;;3.67;1.27;;;21.20;52.70;;;;;;5127438;27;45187;-69
2023/07/31 03:34:25;;;;;;;1.45;1.10;;;21.20;52.80;;;;;;5126848;27;46582;-69
2023/07/31 03:36:52;;;;;;;1.80;1.10;;;21.20;52.80;;;;;;5127476;27;45280;-69
2023/07/31 03:39:19;;;;;;;2.08;0.90;;;21.20;52.90;;;;;;5126837;27;45345;-69
2023/07/31 03:41:46;;;;;;;1.73;1.17;;;21.20;52.80;;;;;;5127392;27;44815;-69
2023/07/31 03:44:14;;;;;;;1.38;1.00;;;21.20;52.70;;;;;;5126732;27;45263;-69
2023/07/31 03:46:41;;;;;;;2.05;1.20;;;21.20;52.70;;;;;;5127134;27;45256;-69
2023/07/31 03:49:08;;;;;;;1.48;1.08;;;21.20;52.40;;;;;;5127259;27;45274;-69
2023/07/31 03:51:35;;;;;;;2.50;1.10;;;21.20;52.40;;;;;;5127069;27;45449;-69
2023/07/31 03:54:02;;;;;;;2.15;0.90;;;21.20;52.30;;;;;;5126675;27;46880;-69
2023/07/31 03:56:29;;;;;;;4.40;1.20;;;21.20;52.50;;;;;;5127097;27;45294;-69
2023/07/31 03:58:55;;;;;;;2.08;1.10;;;21.20;52.60;;;;;;5127082;27;45290;-69
2023/07/31 04:01:23;;;;;;;3.85;1.30;;;21.20;52.60;;;;;;5127201;27;45366;-69
2023/07/31 04:03:50;;;;;;;2.35;0.98;;;21.20;52.60;;;;;;5126707;27;46279;-68
2023/07/31 04:06:18;;;;;;;5.70;1.30;;;21.20;52.60;;;;;;5126852;27;45380;-69
2023/07/31 04:08:45;;;;;;;1.30;1.17;;;21.10;52.70;;;;;;5126945;27;45404;-69
2023/07/31 04:11:12;;;;;;;1.92;1.00;;;21.10;52.80;;;;;;5126974;27;45257;-69
2023/07/31 04:13:39;;;;;;;3.40;1.13;;;21.00;53.00;;;;;;5127463;27;46160;-69
2023/07/31 04:16:06;;;;;;;2.35;1.10;;;21.10;52.90;;;;;;5130260;27;45310;-69
2023/07/31 04:18:34;;;;;;;1.42;0.98;;;21.10;53.00;;;;;;5130552;27;45448;-69
2023/07/31 04:21:02;;;;;;;4.10;1.35;;;21.10;52.90;;;;;;5130510;27;45424;-69
2023/07/31 04:23:29;;;;;;;4.47;1.30;;;21.10;52.80;;;;;;5129397;27;46770;-69
2023/07/31 04:25:56;;;;;;;2.17;1.20;;;21.10;52.70;;;;;;5129976;27;45389;-69
2023/07/31 04:28:22;;;;;;;1.30;1.10;;;21.00;52.90;;;;;;5130378;27;45340;-69
2023/07/31 04:30:49;;;;;;;3.10;1.13;;;21.10;52.90;;;;;;5130254;27;45548;-68
2023/07/31 04:33:16;;;;;;;3.33;1.17;;;21.10;52.90;;;;;;5129974;27;45318;-69
2023/07/31 04:35:52;;;;;;;3.28;1.30;;;21.10;52.80;;;;;;5130002;27;45347;-69
2023/07/31 04:38:19;;;;;;;2.40;1.05;;;21.00;52.90;;;;;;5130039;27;45385;-69
2023/07/31 04:40:45;;;;;;;1.25;1.00;;;21.00;53.10;;;;;;5130112;27;45451;-69
2023/07/31 04:43:12;;;;;;;0.82;0.80;;;21.00;53.10;;;;;;5129663;27;47095;-69
2023/07/31 04:45:39;;;;;;;3.08;1.30;;;21.00;53.10;;;;;;5129720;27;45395;-69
2023/07/31 04:48:06;;;;;;;1.08;0.90;;;21.00;53.90;;;;;;5129734;27;45360;-69
2023/07/31 04:50:33;;;;;;;1.98;1.30;;;21.00;53.30;;;;;;5130105;27;45314;-69
2023/07/31 04:53:01;;;;;;;2.47;1.20;;;21.00;53.10;;;;;;5129245;27;45564;-68
2023/07/31 04:55:28;;;;;;;1.90;1.25;;;21.00;52.90;;;;;;5129542;27;45374;-69
2023/07/31 04:57:55;;;;;;;2.15;1.40;;;21.10;52.80;;;;;;5129817;27;45336;-69
2023/07/31 05:00:22;;;;;;;2.45;1.00;;;21.10;52.60;;;;;;5129883;27;45394;-68
2023/07/31 05:02:49;;;;;;;1.42;0.95;;;21.20;52.30;;;;;;5129450;27;45253;-69
2023/07/31 05:05:16;;;;;;;1.58;1.23;;;21.20;52.20;;;;;;5129204;27;45402;-69
2023/07/31 05:07:42;;;;;;;4.97;1.30;;;21.20;52.10;;;;;;5129058;27;45514;-69
2023/07/31 05:10:11;;;;;;;1.92;1.23;;;21.20;52.40;;;;;;5129378;27;45445;-69
2023/07/31 05:12:38;;;;;;;2.55;1.20;;;21.20;51.90;;;;;;5129345;27;45636;-69
2023/07/31 05:15:05;;;;;;;1.05;0.90;;;21.30;52.00;;;;;;5129503;27;45637;-69
2023/07/31 05:17:32;;;;;;;1.83;1.00;;;21.30;51.90;;;;;;5129382;27;45309;-68
2023/07/31 05:19:59;;;;;;;1.95;1.15;;;21.30;51.70;;;;;;5129711;27;45354;-70
2023/07/31 05:22:26;;;;;;;1.55;1.25;;;21.30;51.40;;;;;;5129185;27;46396;-70
2023/07/31 05:24:54;;;;;;;1.25;1.00;;;21.30;51.50;;;;;;5128836;27;45296;-70
2023/07/31 05:27:22;;;;;;;3.05;1.00;;;21.30;51.70;;;;;;5129361;27;45298;-70
2023/07/31 05:29:48;;;;;;;3.85;1.40;;;21.40;51.60;;;;;;5129544;27;45375;-70
2023/07/31 05:32:15;;;;;;;3.72;1.00;;;21.40;51.30;;;;;;5129298;27;45544;-70
2023/07/31 05:34:42;;;;;;;2.63;1.30;;;21.40;51.60;;;;;;5128864;27;45256;-70
2023/07/31 05:37:11;;;;;;;3.75;1.17;;;21.40;51.30;;;;;;5129179;27;45279;-70
2023/07/31 05:39:38;;;;;;;2.72;1.15;;;21.40;51.40;;;;;;5129208;27;45282;-70
2023/07/31 05:42:05;;;;;;;2.40;1.25;;;21.40;51.30;;;;;;5128799;27;46311;-70
2023/07/31 05:44:34;;;;;;;1.75;0.93;;;21.40;51.70;;;;;;5128851;27;45170;-70
2023/07/31 05:47:00;;;;;;;4.72;1.10;;;21.50;51.40;;;;;;5128948;27;45354;-70
2023/07/31 05:49:27;;;;;;;2.08;1.38;;;21.50;51.40;;;;;;5129363;27;45383;-71
2023/07/31 05:51:54;;;;;;;1.90;1.00;;;21.50;51.30;;;;;;5128377;27;46724;-70
2023/07/31 05:54:21;;;;;;;1.83;1.02;;;21.50;51.40;;;;;;5127950;27;45355;-70
2023/07/31 05:56:48;;;;;;;1.38;1.05;;;21.50;51.30;;;;;;5129047;27;44754;-70
2023/07/31 05:59:15;;;;;;;2.40;1.08;;;21.60;51.30;;;;;;5129204;27;45373;-70
2023/07/31 06:01:43;;;;;;;3.28;1.15;;;21.60;51.20;;;;;;5128503;27;45315;-70
2023/07/31 06:04:10;;;;;;;2.45;0.90;;;21.70;51.10;;;;;;5128287;27;45387;-70
2023/07/31 06:06:37;;;;;;;1.48;1.17;;;21.70;51.10;;;;;;5128557;27;45413;-71
2023/07/31 06:09:04;;;;;;;2.53;1.10;;;21.70;51.10;;;;;;5129244;27;45508;-70
2023/07/31 06:11:31;;;;;;;2.05;0.90;;;21.80;51.10;;;;;;5128393;27;47507;-70
2023/07/31 06:13:58;;;;;;;2.50;1.13;;;21.80;51.00;;;;;;5128319;27;45385;-70
2023/07/31 06:16:26;;;;;;;1.55;1.08;;;21.80;51.00;;;;;;5128751;27;45325;-70
2023/07/31 06:18:55;;;;;;;2.28;1.15;;;21.70;50.90;;;;;;5128584;27;45310;-70
2023/07/31 06:21:21;;;;;;;1.95;1.30;;;21.70;51.00;;;;;;5128595;27;45528;-70
2023/07/31 06:23:48;;;;;;;1.35;1.10;;;21.70;51.00;;;;;;5128187;27;45240;-70
2023/07/31 06:26:15;;;;;;;1.65;1.00;;;21.80;51.20;;;;;;5128448;27;45456;-71
2023/07/31 06:28:42;;;;;;;3.80;1.20;;;21.80;51.00;;;;;;5128813;27;45324;-70
2023/07/31 06:31:09;;;;;;;3.95;1.50;;;21.80;51.00;;;;;;5128149;27;45260;-71
2023/07/31 06:33:36;;;;;;;3.50;1.30;;;21.80;50.90;;;;;;5128002;27;45261;-70
2023/07/31 06:36:05;;;;;;;3.00;1.55;;;21.80;50.90;;;;;;5127871;27;45412;-69
2023/07/31 06:38:31;;;;;;;3.75;1.30;;;21.80;50.90;;;;;;5127498;27;45379;-70
2023/07/31 06:40:58;;;;;;;2.67;1.27;;;21.80;50.90;;;;;;5128040;27;47321;-70
2023/07/31 06:43:25;;;;;;;2.30;1.42;;;21.80;50.90;;;;;;5128054;27;45306;-71
2023/07/31 06:45:52;;;;;;;1.45;1.20;;;21.90;51.00;;;;;;5128281;27;45295;-70
2023/07/31 06:48:19;;;;;;;3.38;1.60;;;21.90;50.90;;;;;;5128390;27;45285;-70
2023/07/31 06:50:46;;;;;;;2.83;1.45;;;21.90;50.90;;;;;;5127955;27;46596;-71
2023/07/31 06:53:14;;;;;;;3.80;1.30;;;21.90;50.70;;;;;;5127558;27;45256;-71
2023/07/31 06:55:41;;;;;;;2.35;1.02;;;21.90;51.10;;;;;;5128059;27;45356;-70
2023/07/31 06:58:08;;;;;;;1.85;1.20;;;21.90;50.90;;;;;;5128400;27;45465;-71
2023/07/31 07:00:35;;;;;;;2.45;1.52;;;21.90;51.00;;;;;;5127785;27;46605;-71
2023/07/31 07:03:02;;;;;;;1.52;1.13;;;21.90;50.90;;;;;;5128032;27;45375;-71
2023/07/31 07:05:29;;;;;;;2.78;1.30;;;22.00;51.00;;;;;;5127901;27;45475;-71
2023/07/31 07:07:56;;;;;;;2.70;1.23;;;22.00;50.80;;;;;;5128540;27;45329;-70
2023/07/31 07:10:24;;;;;;;1.55;1.10;;;22.00;50.90;;;;;;5127547;27;45361;-70
2023/07/31 07:12:51;;;;;;;2.33;0.93;;;22.00;50.90;;;;;;5127562;27;45515;-70
2023/07/31 07:15:18;;;;;;;3.85;1.20;;;22.00;51.00;;;;;;5127776;27;45359;-70
2023/07/31 07:17:44;;;;;;;1.55;1.42;;;22.10;50.90;;;;;;5128177;27;45416;-70
2023/07/31 07:20:11;;;;;;;2.13;1.25;;;22.10;50.90;;;;;;5126736;27;47304;-71
2023/07/31 07:22:39;;;;;;;4.03;1.48;;;22.10;50.90;;;;;;5127423;27;45279;-71
2023/07/31 07:25:07;;;;;;;1.00;0.90;;;22.20;50.70;;;;;;5127518;27;45301;-71
2023/07/31 07:27:35;;;;;;;1.88;1.00;;;22.20;50.80;;;;;;5127808;27;45496;-70
2023/07/31 07:30:02;;;;;;;2.83;1.35;;;22.20;50.50;;;;;;5127679;27;47653;-70
2023/07/31 07:32:29;;;;;;;2.38;1.50;;;22.20;50.50;;;;;;5127462;27;45319;-71
2023/07/31 07:34:56;;;;;;;2.38;1.20;;;22.20;50.50;;;;;;5127712;27;45402;-71
2023/07/31 07:37:23;;;;;;;1.70;1.20;;;22.10;50.50;;;;;;5127663;27;45192;-70
2023/07/31 07:39:50;;;;;;;2.28;1.25;;;22.10;50.60;;;;;;5127098;27;46477;-71
2023/07/31 07:42:16;;;;;;;1.73;1.10;;;22.10;50.70;;;;;;5127388;27;45326;-71
2023/07/31 07:44:45;;;;;;;3.97;1.20;;;22.20;51.20;;;;;;5127422;27;45445;-71
2023/07/31 07:47:11;;;;;;;2.33;1.50;;;22.20;50.50;;;;;;5127678;27;45295;-70
2023/07/31 07:49:38;;;;;;;3.58;1.00;;;22.30;50.50;;;;;;5128939;27;46361;-70
2023/07/31 07:52:06;;;;;;;1.98;1.08;;;22.30;50.20;;;;;;5130880;27;45281;-71
2023/07/31 07:54:33;;;;;;;2.30;1.10;;;22.40;50.20;;;;;;5130493;27;45447;-70
2023/07/31 07:57:00;;;;;;;1.23;0.73;;;22.30;49.90;;;;;;5131136;27;45286;-70
2023/07/31 07:59:27;;;;;;;3.53;1.38;;;22.30;50.60;;;;;;5130602;27;46365;-70
2023/07/31 08:01:55;;;;;;;2.13;1.30;;;22.30;50.70;;;;;;5130818;27;45362;-70
2023/07/31 08:04:22;;;;;;;2.15;1.27;;;22.30;50.20;;;;;;5130512;27;45296;-70
2023/07/31 08:06:49;;;;;;;4.15;1.10;;;22.40;50.30;;;;;;5131089;27;45375;-71
2023/07/31 08:09:16;;;;;;;3.17;1.60;;;22.40;50.20;;;;;;5130479;27;46907;-70
2023/07/31 08:11:43;;;;;;;3.40;1.17;;;22.40;50.20;;;;;;5130650;27;45428;-70
2023/07/31 08:14:09;;;;;;;3.20;1.15;;;22.50;50.20;;;;;;5130827;27;45324;-70
2023/07/31 08:16:36;;;;;;;2.85;1.23;;;22.50;50.30;;;;;;5130759;27;45299;-71
2023/07/31 08:19:05;;;;;;;1.80;1.20;;;22.50;50.30;;;;;;5130877;27;45179;-70
2023/07/31 08:21:32;;;;;;;1.67;1.00;;;22.60;50.50;;;;;;5130202;27;45331;-70
2023/07/31 08:23:59;;;;;;;2.60;1.17;;;22.70;50.20;;;;;;5130460;27;45311;-70
2023/07/31 08:26:26;;;;;;;1.85;1.25;;;22.80;50.00;;;;;;5131248;27;45284;-71
2023/07/31 08:28:53;;;;;;;2.90;1.17;;;22.90;50.00;;;;;;5130370;27;45454;-70
2023/07/31 08:31:20;;;;;;;1.95;1.10;;;23.00;49.80;;;;;;5130133;27;45325;-69
2023/07/31 08:33:47;;;;;;;1.05;1.00;;;23.00;49.70;;;;;;5127744;27;45381;-69
2023/07/31 08:36:15;;;;;;;3.97;1.10;;;23.10;49.70;;;;;;5130395;27;45361;-69
2023/07/31 08:38:42;;;;;;;3.58;1.17;;;23.20;49.60;;;;;;5130216;27;45244;-70
2023/07/31 08:41:09;;;;;;;1.77;1.35;;;23.20;49.50;;;;;;5130326;27;45408;-69
2023/07/31 08:43:36;;;;;;;2.47;1.50;;;23.30;49.40;;;;;;5112676;27;45280;-69
2023/07/31 08:46:03;;;;;;;4.20;1.60;;;23.30;49.40;;;;;;5110367;27;45355;-69
2023/07/31 08:48:30;;;;;;;2.33;1.45;;;23.40;49.40;;;;;;5108988;27;46313;-69
2023/07/31 08:50:56;;;;;;;2.60;1.70;;;23.40;49.30;;;;;;5109209;27;45256;-71
2023/07/31 08:53:25;;;;;;;2.33;1.40;;;23.50;49.30;;;;;;5108969;27;45314;-72
2023/07/31 08:55:52;;;;;;;2.72;1.65;;;23.50;49.30;;;;;;5115085;27;45540;-71
2023/07/31 08:58:19;;;;;;;3.90;1.63;;;23.50;49.20;;;;;;5109345;27;46396;-71
2023/07/31 09:00:46;;;;;;;5.13;1.38;;;23.60;49.30;;;;;;5109328;27;45323;-71
2023/07/31 09:03:15;;;;;;;3.53;1.17;;;23.60;49.20;;;;;;5109341;27;45283;-70
2023/07/31 09:05:43;;;;;;;2.90;1.35;;;23.70;49.20;;;;;;5109565;27;45529;-71
2023/07/31 09:08:10;;;;;;;3.78;1.55;;;23.70;49.30;;;;;;5108975;27;46679;-69
2023/07/31 09:10:41;;;;;;;2.83;1.63;;;23.80;49.40;;;;;;5109154;27;45320;-71
2023/07/31 09:13:08;;;;;;;3.58;1.85;;;23.80;49.30;;;;;;5109226;27;45334;-70
2023/07/31 09:15:34;;;;;;;4.07;2.03;;;23.80;49.20;;;;;;5109368;27;45307;-71
2023/07/31 09:18:02;;;;;;;3.15;2.00;;;23.90;49.20;;;;;;5108742;27;46349;-70
2023/07/31 09:20:29;;;;;;;3.53;1.80;;;23.90;49.20;;;;;;5108977;27;45276;-70
2023/07/31 09:22:56;;;;;;;2.53;1.63;;;23.90;49.20;;;;;;5108974;27;45404;-71
2023/07/31 09:25:23;;;;;;;4.93;1.85;;;23.90;49.20;;;;;;5109147;27;45369;-71
2023/07/31 09:27:53;;;;;;;4.70;2.03;;;24.00;49.10;;;;;;5108985;27;45454;-71
2023/07/31 09:30:21;;;;;;;3.22;1.77;;;24.00;49.00;;;;;;5108774;27;45389;-71
2023/07/31 09:32:48;;;;;;;3.22;2.10;;;24.10;49.00;;;;;;5108672;27;45446;-69
2023/07/31 09:35:21;;;;;;;2.95;1.60;;;24.10;48.90;;;;;;5108247;27;45577;-69
2023/07/31 09:37:52;;;;;;;3.15;2.20;;;24.10;48.70;;;;;;5107894;27;46643;-69
2023/07/31 09:40:29;;;;;;;5.63;2.60;;;24.10;48.80;;;;;;5108919;27;45370;-71
2023/07/31 09:42:59;;;;;;;3.17;2.33;;;24.20;48.90;;;;;;5108362;27;45359;-71
2023/07/31 09:45:26;;;;;;;6.57;3.00;;;24.20;48.90;;;;;;5108567;27;45285;-71
2023/07/31 09:47:53;;;;;;;4.93;2.63;;;24.30;48.80;;;;;;5108410;27;45305;-70
2023/07/31 09:50:21;;;;;;;3.78;2.45;;;24.30;48.60;;;;;;5108212;27;45324;-69
2023/07/31 09:52:48;;;;;;;3.47;2.20;;;24.30;48.60;;;;;;5108148;27;45306;-69
2023/07/31 09:55:15;;;;;;;7.15;2.42;;;24.30;48.70;;;;;;5108325;27;45364;-68
2023/07/31 09:57:42;;;;;;;3.55;1.92;;;24.40;48.80;;;;;;5108049;27;46645;-68
2023/07/31 10:00:12;;;;;;;3.17;2.03;;;24.40;48.80;;;;;;5107914;27;45317;-69
2023/07/31 10:02:39;;;;;;;5.90;2.05;;;24.40;48.80;;;;;;5108458;27;45311;-67
2023/07/31 10:05:06;;;;;;;3.17;1.85;;;24.50;49.40;;;;;;5108448;27;45306;-66
2023/07/31 10:07:37;;;;;;;3.70;1.98;;;24.50;48.70;;;;;;5108038;27;45324;-69
2023/07/31 10:10:04;;;;;;;3.33;1.85;;;24.50;48.70;;;;;;5108246;27;45378;-69
2023/07/31 10:12:31;;;;;;;2.63;2.05;;;24.50;48.70;;;;;;5107570;27;45331;-69
2023/07/31 10:14:58;;;;;;;3.90;2.20;;;24.60;48.70;;;;;;5107961;27;45520;-69
2023/07/31 10:17:26;;;;;;;3.22;1.83;;;24.60;48.70;;;;;;5108134;27;45510;-67
2023/07/31 10:19:53;;;;;;;2.20;1.70;;;24.70;48.60;;;;;;5107903;27;45298;-69
2023/07/31 10:22:21;;;;;;;2.28;1.80;;;24.70;48.50;;;;;;5108002;27;45331;-69
2023/07/31 10:24:48;;;;;;;2.58;1.92;;;24.70;48.50;;;;;;5107863;27;45542;-69
2023/07/31 10:27:14;;;;;;;2.35;1.73;;;24.70;48.40;;;;;;5107366;27;46393;-68
2023/07/31 10:29:42;;;;;;;6.03;2.10;;;24.80;48.40;;;;;;5107390;27;45478;-69
2023/07/31 10:32:10;;;;;;;4.28;1.83;;;24.80;48.30;;;;;;5107926;27;45521;-69
2023/07/31 10:34:39;;;;;;;2.20;1.83;;;24.90;48.30;;;;;;5107924;27;45319;-70
2023/07/31 10:37:26;;;;;;;1.90;1.60;;;25.00;48.20;;;;;;5107670;27;45464;-68
2023/07/31 10:39:57;;;;;;;1.95;1.55;;;25.00;48.10;;;;;;5107438;27;45294;-69
2023/07/31 10:42:29;;;;;;;2.15;1.80;;;25.10;48.50;;;;;;5105138;27;45313;-72
2023/07/31 10:44:58;;;;;;;3.38;2.03;;;25.10;49.70;;;;;;5107741;27;45373;-70
2023/07/31 10:47:25;;;;;;;4.10;2.30;;;25.20;51.60;;;;;;5107646;27;45302;-70
2023/07/31 10:49:53;;;;;;;7.70;3.25;;;25.30;51.40;;;;;;5107622;27;45382;-70
2023/07/31 10:52:23;;;;;;;3.35;2.45;;;25.40;50.90;;;;;;5107755;27;45376;-69
2023/07/31 10:54:50;;;;;;;4.22;2.20;;;25.50;52.60;;;;;;5107079;27;45315;-68
2023/07/31 10:57:21;;;;;;;3.80;2.00;;;25.60;52.00;;;;;;5107333;27;45265;-69
2023/07/31 10:59:49;;;;;;;4.35;3.28;;;25.60;51.20;;;;;;5107520;27;45389;-70
2023/07/31 11:02:35;;;;;;;8.77;2.88;;;25.70;50.50;;;;;;5107981;27;45439;-72
2023/07/31 11:05:09;;;;;;;7.75;2.67;;;25.80;50.80;;;;;;5108251;27;45365;-70
2023/07/31 11:07:49;;;;;;;15.85;2.95;;;25.80;50.70;;;;;;5107611;27;46439;-70
2023/07/31 11:10:18;;;;;;;20.98;4.15;;;25.90;51.20;;;;;;5107847;27;45320;-73
2023/07/31 11:12:46;;;;;;;19.45;3.58;;;25.90;51.00;;;;;;5108081;27;45306;-69
2023/07/31 11:15:13;;;;;;;18.77;3.30;;;26.00;50.80;;;;;;5107756;27;45386;-71
2023/07/31 11:17:40;;;;;;;14.90;2.85;;;26.00;50.20;;;;;;5107427;27;46852;-72
2023/07/31 11:20:09;;;;;;;17.95;3.33;;;26.00;50.50;;;;;;5107636;27;45193;-70
2023/07/31 11:22:36;;;;;;;14.73;3.78;;;26.20;50.60;;;;;;5107310;27;45297;-70
2023/07/31 11:25:04;;;;;;;15.57;3.85;;;26.30;49.60;;;;;;5107449;27;45466;-70
2023/07/31 11:27:31;;;;;;;17.83;3.83;;;26.30;49.80;;;;;;5108566;27;46274;-70
2023/07/31 11:30:02;;;;;;;13.57;3.25;;;26.50;50.10;;;;;;5117240;27;45356;-73
2023/07/31 11:32:29;;;;;;;19.20;3.10;;;26.60;48.90;;;;;;5116782;27;45246;-70
2023/07/31 11:34:55;;;;;;;14.25;3.90;;;26.80;48.40;;;;;;5121225;27;45457;-70
2023/07/31 11:37:24;;;;;;;15.32;3.78;;;26.80;48.10;;;;;;5110348;27;47267;-70
2023/07/31 11:40:00;;;;;;;15.90;3.25;;;26.90;47.90;;;;;;5122120;27;45340;-70
2023/07/31 11:42:27;;;;;;;13.45;3.05;;;27.00;48.30;;;;;;5115818;27;45414;-70
2023/07/31 11:44:54;;;;;;;14.82;3.10;;;27.00;48.10;;;;;;5115182;27;45366;-71
2023/07/31 11:47:21;;;;;;;4.22;2.20;;;27.10;47.50;;;;;;5127559;27;46388;-71
2023/07/31 11:49:47;;;;;;;6.20;2.33;;;27.10;46.60;;;;;;5110695;27;45291;-71
2023/07/31 11:52:14;;;;;;;5.80;2.10;;;27.20;46.30;;;;;;5128203;27;45395;-71
2023/07/31 11:54:42;;;;;;;7.65;2.40;;;27.20;45.80;;;;;;5127394;27;45559;-70
2023/07/31 11:57:09;;;;;;;9.45;2.83;;;27.40;45.70;;;;;;5127806;27;45406;-70
2023/07/31 11:59:36;;;;;;;12.02;2.65;;;27.60;46.30;;;;;;5127541;27;45408;-69
2023/07/31 12:02:03;;;;;;;9.55;2.67;;;27.70;45.70;;;;;;5122812;27;45420;-70
2023/07/31 12:04:30;;;;;;;5.90;2.05;;;27.90;44.60;;;;;;5117311;27;45591;-70
2023/07/31 12:06:57;;;;;;;8.27;2.30;;;28.00;44.50;;;;;;5116054;27;46389;-70
2023/07/31 12:09:26;;;;;;;4.72;1.98;;;28.10;44.70;;;;;;5123171;27;45446;-68
2023/07/31 12:11:54;;;;;;;8.55;2.22;;;28.30;44.60;;;;;;5118059;27;45607;-70
2023/07/31 12:14:22;;;;;;;15.18;2.65;;;28.40;44.70;;;;;;5114700;27;45565;-67
2023/07/31 12:16:49;;;;;;;9.68;2.60;;;28.50;44.10;;;;;;5122331;27;45434;-70
2023/07/31 12:19:15;;;;;;;10.35;2.22;;;28.60;44.00;;;;;;5109599;27;45330;-70
2023/07/31 12:21:42;;;;;;;14.45;3.08;;;28.80;43.60;;;;;;5106321;27;45384;-71
2023/07/31 12:24:09;;;;;;;13.35;3.03;;;28.90;44.00;;;;;;5105965;27;45249;-69
2023/07/31 12:26:36;;;;;;;9.60;2.50;;;29.00;44.00;;;;;;5104856;27;46370;-70
2023/07/31 12:29:06;;;;;;;11.25;2.55;;;29.10;43.80;;;;;;5120835;27;45448;-72
2023/07/31 12:31:34;;;;;;;11.98;2.92;;;29.10;43.80;;;;;;5109071;27;45259;-70
2023/07/31 12:34:02;;;;;;;15.85;2.63;;;29.20;44.00;;;;;;5104889;27;45465;-70
2023/07/31 12:36:30;;;;;;;14.63;2.90;;;29.30;43.30;;;;;;5119624;27;45406;-72
2023/07/31 12:38:58;;;;;;;12.80;2.90;;;29.40;44.10;;;;;;5130541;27;45408;-69
2023/07/31 12:41:25;;;;;;;10.70;2.22;;;29.50;43.70;;;;;;5130932;27;45340;-69
2023/07/31 12:43:52;;;;;;;8.95;2.10;;;29.60;43.60;;;;;;5130029;27;45492;-71
2023/07/31 12:46:20;;;;;;;18.25;3.00;;;29.60;43.00;;;;;;5130098;27;45716;-69